Time;durP1;ratioP1;P1;durP2;ratioP2;P2;SDS_P1;SDS_P2;PMS_P1;PMS_P2;Temp;Humidity;BMP_temperature;BMP_pressure;BME280_temperature;BME280_humidity;BME280_pressure;Samples;Min_cycle;Max_cycle;Signal;HPM_P1;HPM_P2
2024/01/09 00:00:13;;;;;;;35.00;12.90;;;-12.20;99.90;;;;;;5032368;28;20471;-85
2024/01/09 00:03:00;;;;;;;38.70;13.87;;;-12.20;99.90;;;;;;5032763;28;20818;-85
2024/01/09 00:05:50;;;;;;;33.53;12.90;;;-12.30;99.90;;;;;;5032297;28;20203;-84
2024/01/09 00:08:37;;;;;;;34.67;13.13;;;-12.30;99.90;;;;;;5032757;28;20365;-85
2024/01/09 00:11:25;;;;;;;37.50;13.03;;;-12.30;99.90;;;;;;5032513;28;20687;-85
2024/01/09 00:14:13;;;;;;;39.37;13.93;;;-12.30;99.90;;;;;;5033172;28;20333;-84
2024/01/09 00:17:01;;;;;;;34.47;12.33;;;-12.30;99.90;;;;;;5033054;28;20208;-84
2024/01/09 00:19:48;;;;;;;37.30;13.13;;;-12.30;99.90;;;;;;5034148;28;20195;-85
2024/01/09 00:22:36;;;;;;;33.83;13.13;;;-12.30;99.90;;;;;;5035832;28;20337;-84
2024/01/09 00:25:23;;;;;;;39.50;14.83;;;-12.20;99.90;;;;;;5031457;28;20273;-83
2024/01/09 00:28:10;;;;;;;36.73;14.13;;;-12.20;99.90;;;;;;5031853;28;20223;-85
2024/01/09 00:30:57;;;;;;;38.73;14.67;;;-12.20;99.90;;;;;;5031498;28;20241;-85
2024/01/09 00:33:45;;;;;;;41.30;14.20;;;-12.20;99.90;;;;;;5030660;28;20702;-84
2024/01/09 00:36:32;;;;;;;39.63;14.53;;;-12.20;99.90;;;;;;5031539;28;20191;-85
2024/01/09 00:39:20;;;;;;;38.93;13.87;;;-12.20;99.90;;;;;;5032008;28;20202;-85
2024/01/09 00:42:08;;;;;;;39.70;14.17;;;-12.20;99.90;;;;;;5032250;28;20224;-85
2024/01/09 00:44:55;;;;;;;33.83;14.10;;;-12.20;99.90;;;;;;5030633;28;20204;-84
2024/01/09 00:47:42;;;;;;;36.83;14.27;;;-12.20;99.90;;;;;;5037337;28;20219;-85
2024/01/09 00:50:30;;;;;;;39.40;14.00;;;-12.20;99.90;;;;;;5035878;28;20219;-85
2024/01/09 00:53:17;;;;;;;41.87;15.43;;;-12.20;99.90;;;;;;5034810;28;20191;-85
2024/01/09 00:56:06;;;;;;;41.50;14.30;;;-12.20;99.90;;;;;;5037508;28;20215;-85
2024/01/09 00:58:53;;;;;;;36.50;14.40;;;-12.20;99.90;;;;;;5037003;28;20195;-84
2024/01/09 01:01:40;;;;;;;50.20;15.60;;;-12.20;99.90;;;;;;5035390;28;20199;-85
2024/01/09 01:04:28;;;;;;;39.47;13.83;;;-12.20;99.90;;;;;;5035379;28;20588;-84
2024/01/09 01:07:15;;;;;;;43.23;14.73;;;-12.20;99.90;;;;;;5036113;28;20223;-85
2024/01/09 01:10:03;;;;;;;38.83;14.03;;;-12.20;99.90;;;;;;5035035;28;20226;-85
2024/01/09 01:12:50;;;;;;;44.47;15.10;;;-12.20;99.90;;;;;;5036952;28;20606;-85
2024/01/09 01:15:38;;;;;;;37.33;13.70;;;-12.20;99.90;;;;;;5034971;28;20274;-84
2024/01/09 01:18:25;;;;;;;41.67;13.87;;;-12.20;99.90;;;;;;5036001;28;20655;-85
2024/01/09 01:21:15;;;;;;;39.93;14.37;;;-12.20;99.90;;;;;;5034579;28;20196;-85
2024/01/09 01:24:03;;;;;;;42.77;14.70;;;-12.20;99.90;;;;;;5035860;28;20207;-84
2024/01/09 01:26:50;;;;;;;41.13;14.23;;;-12.20;99.90;;;;;;5036988;28;20318;-85
2024/01/09 01:29:37;;;;;;;41.50;14.07;;;-12.20;99.90;;;;;;5037229;28;20202;-85
2024/01/09 01:32:25;;;;;;;38.27;14.37;;;-12.20;99.90;;;;;;5035891;28;20206;-84
2024/01/09 01:35:13;;;;;;;46.07;15.10;;;-12.20;99.90;;;;;;5037898;28;20662;-84
2024/01/09 01:38:00;;;;;;;38.37;13.77;;;-12.20;99.90;;;;;;5037350;28;20272;-84
2024/01/09 01:40:47;;;;;;;43.57;14.30;;;-12.10;99.90;;;;;;5035483;28;20198;-84
2024/01/09 01:43:35;;;;;;;40.70;13.97;;;-12.10;99.90;;;;;;5035019;28;20600;-85
2024/01/09 01:46:22;;;;;;;40.40;13.67;;;-12.10;99.90;;;;;;5035116;28;20197;-85
2024/01/09 01:49:11;;;;;;;39.50;13.80;;;-12.20;99.90;;;;;;5036816;28;20210;-85
2024/01/09 01:52:00;;;;;;;40.43;14.87;;;-12.10;99.90;;;;;;5035875;28;20199;-84
2024/01/09 01:54:47;;;;;;;39.97;14.53;;;-12.10;99.90;;;;;;5034902;28;20338;-85
2024/01/09 01:57:35;;;;;;;39.73;14.30;;;-12.20;99.90;;;;;;5034424;28;20219;-85
2024/01/09 02:00:24;;;;;;;37.43;13.77;;;-12.10;99.90;;;;;;5033927;28;20324;-85
2024/01/09 02:03:12;;;;;;;39.20;14.83;;;-12.10;99.90;;;;;;5035774;28;20242;-85
2024/01/09 02:06:01;;;;;;;38.23;14.70;;;-12.10;99.90;;;;;;5033625;28;20195;-85
2024/01/09 02:08:48;;;;;;;46.70;14.80;;;-12.10;99.90;;;;;;5036137;28;20283;-85
2024/01/09 02:11:36;;;;;;;48.27;14.70;;;-12.10;99.90;;;;;;5035006;28;20227;-85
2024/01/09 02:14:24;;;;;;;39.40;15.07;;;-12.10;99.90;;;;;;5034481;28;20746;-85
2024/01/09 02:17:12;;;;;;;40.37;15.87;;;-12.10;99.90;;;;;;5034853;28;20553;-84
2024/01/09 02:20:00;;;;;;;37.83;14.80;;;-12.10;99.90;;;;;;5034332;28;20192;-85
2024/01/09 02:22:48;;;;;;;40.33;14.60;;;-12.10;99.90;;;;;;5033570;28;20196;-84
2024/01/09 02:25:35;;;;;;;45.53;15.00;;;-12.10;99.90;;;;;;5032821;28;20203;-82
2024/01/09 02:28:31;;;;;;;39.63;14.07;;;-12.10;99.90;;;;;;5036283;28;20215;-84
2024/01/09 02:31:18;;;;;;;43.67;14.90;;;-12.10;99.90;;;;;;5036001;28;20239;-84
2024/01/09 02:34:06;;;;;;;45.93;14.57;;;-12.10;99.90;;;;;;5034673;28;20265;-85
2024/01/09 02:36:57;;;;;;;43.83;14.67;;;-12.10;99.90;;;;;;5033714;28;20231;-84
2024/01/09 02:39:44;;;;;;;45.80;14.93;;;-12.10;99.90;;;;;;5034432;28;20679;-84
2024/01/09 02:42:32;;;;;;;40.67;14.97;;;-12.10;99.90;;;;;;5034544;28;20341;-85
2024/01/09 02:45:19;;;;;;;43.20;15.57;;;-12.00;99.90;;;;;;5035298;28;20199;-84
2024/01/09 02:48:07;;;;;;;44.83;15.07;;;-12.00;99.90;;;;;;5034580;28;20741;-84
2024/01/09 02:50:54;;;;;;;48.00;15.07;;;-12.00;99.90;;;;;;5034299;28;20678;-85
2024/01/09 02:53:41;;;;;;;39.30;14.87;;;-12.10;99.90;;;;;;5035752;28;20401;-84
2024/01/09 02:56:29;;;;;;;39.10;14.50;;;-12.00;99.90;;;;;;5034213;28;20212;-85
2024/01/09 02:59:16;;;;;;;45.93;15.17;;;-12.00;99.90;;;;;;5033922;28;20612;-85
2024/01/09 03:02:04;;;;;;;42.67;14.37;;;-12.00;99.90;;;;;;5034172;28;20191;-85
2024/01/09 03:04:51;;;;;;;37.33;14.93;;;-12.00;99.90;;;;;;5033629;28;20231;-85
2024/01/09 03:07:39;;;;;;;42.53;15.00;;;-12.00;99.90;;;;;;5033688;28;20208;-84
2024/01/09 03:10:27;;;;;;;48.07;16.40;;;-12.00;99.90;;;;;;5033271;28;20612;-84
2024/01/09 03:13:14;;;;;;;44.13;15.47;;;-12.00;99.90;;;;;;5033761;28;20282;-83
2024/01/09 03:16:09;;;;;;;45.57;15.47;;;-12.00;99.90;;;;;;5032592;28;20192;-85
2024/01/09 03:18:56;;;;;;;42.20;15.73;;;-12.00;99.90;;;;;;5034706;28;20677;-85
2024/01/09 03:21:43;;;;;;;38.53;14.53;;;-12.00;99.90;;;;;;5035488;28;20207;-85
2024/01/09 03:24:31;;;;;;;45.63;15.60;;;-12.00;99.90;;;;;;5034136;28;20610;-84
2024/01/09 03:27:18;;;;;;;39.87;14.73;;;-12.10;99.90;;;;;;5035056;28;20743;-84
2024/01/09 03:30:07;;;;;;;40.37;15.27;;;-12.00;99.90;;;;;;5035617;28;20194;-85
2024/01/09 03:32:54;;;;;;;43.20;16.07;;;-12.10;99.90;;;;;;5034164;28;20280;-85
2024/01/09 03:35:42;;;;;;;47.10;15.57;;;-12.10;99.90;;;;;;5034151;28;20200;-83
2024/01/09 03:38:29;;;;;;;43.70;15.13;;;-12.00;99.90;;;;;;5034415;28;20231;-84
2024/01/09 03:41:16;;;;;;;43.90;15.73;;;-12.10;99.90;;;;;;5033864;28;20219;-85
2024/01/09 03:44:04;;;;;;;44.23;15.93;;;-12.10;99.90;;;;;;5034020;28;20197;-84
2024/01/09 03:46:51;;;;;;;42.17;15.77;;;-12.10;99.90;;;;;;5034262;28;20212;-85
2024/01/09 03:49:39;;;;;;;40.83;16.07;;;-12.10;99.90;;;;;;5033782;28;20188;-84
2024/01/09 03:52:26;;;;;;;43.60;15.83;;;-12.20;99.90;;;;;;5035231;28;20203;-84
2024/01/09 03:55:15;;;;;;;46.53;15.50;;;-12.20;99.90;;;;;;5032034;28;20388;-84
2024/01/09 03:58:03;;;;;;;40.50;16.30;;;-12.30;99.90;;;;;;5032422;28;20574;-84
2024/01/09 04:00:50;;;;;;;46.73;16.53;;;-12.30;99.90;;;;;;5031411;28;20195;-84
2024/01/09 04:03:38;;;;;;;47.00;17.40;;;-12.30;99.90;;;;;;5032470;28;20752;-85
2024/01/09 04:06:26;;;;;;;41.60;16.33;;;-12.20;99.90;;;;;;5033080;28;20702;-85
2024/01/09 04:09:14;;;;;;;48.93;17.33;;;-12.20;99.90;;;;;;5031661;28;20596;-85
2024/01/09 04:12:01;;;;;;;52.33;17.10;;;-12.20;99.90;;;;;;5034379;28;20214;-85
2024/01/09 04:14:49;;;;;;;44.13;15.53;;;-12.20;99.90;;;;;;5033730;28;20191;-84
2024/01/09 04:17:36;;;;;;;50.33;18.23;;;-12.20;99.90;;;;;;5032224;28;20206;-83
2024/01/09 04:20:24;;;;;;;53.80;17.50;;;-12.20;99.90;;;;;;5035853;28;20188;-85
2024/01/09 04:23:11;;;;;;;49.87;17.30;;;-12.30;99.90;;;;;;5038119;28;20197;-84
2024/01/09 04:25:58;;;;;;;48.00;18.40;;;-12.30;99.90;;;;;;5037400;28;20203;-84
2024/01/09 04:28:46;;;;;;;56.50;17.47;;;-12.30;99.90;;;;;;5035337;28;20230;-84
2024/01/09 04:31:34;;;;;;;59.87;19.00;;;-12.30;99.90;;;;;;5036620;28;20649;-84
2024/01/09 04:34:21;;;;;;;56.70;18.80;;;-12.30;99.90;;;;;;5037187;28;20670;-84
2024/01/09 04:37:09;;;;;;;51.83;17.83;;;-12.30;99.90;;;;;;5050828;28;20188;-86
2024/01/09 04:39:57;;;;;;;53.73;18.70;;;-12.30;99.90;;;;;;5051365;28;20199;-86
2024/01/09 04:42:44;;;;;;;52.23;18.47;;;-12.40;99.90;;;;;;5052791;28;20250;-86
2024/01/09 04:45:31;;;;;;;51.70;18.80;;;-12.40;99.90;;;;;;5056031;28;20247;-86
2024/01/09 04:48:19;;;;;;;55.23;17.33;;;-12.40;99.90;;;;;;5057859;28;20245;-85
2024/01/09 04:51:06;;;;;;;48.73;17.33;;;-12.40;99.90;;;;;;5045128;28;20195;-86
2024/01/09 04:53:54;;;;;;;60.07;20.33;;;-12.40;99.90;;;;;;5037080;28;20655;-86
2024/01/09 04:56:43;;;;;;;54.97;18.70;;;-12.50;99.90;;;;;;5036291;28;20226;-85
2024/01/09 04:59:30;;;;;;;58.33;19.07;;;-12.50;99.90;;;;;;5037787;28;20191;-86
2024/01/09 05:02:17;;;;;;;55.73;19.50;;;-12.50;99.90;;;;;;5036262;28;20199;-86
2024/01/09 05:05:05;;;;;;;57.37;19.63;;;-12.50;99.90;;;;;;5036929;28;20199;-85
2024/01/09 05:07:52;;;;;;;61.30;20.77;;;-12.50;99.90;;;;;;5036179;28;20567;-85
2024/01/09 05:10:43;;;;;;;64.23;22.50;;;-12.50;99.90;;;;;;5035765;28;20241;-85
2024/01/09 05:13:31;;;;;;;51.60;19.97;;;-12.80;99.90;;;;;;5035956;28;20203;-86
2024/01/09 05:16:18;;;;;;;56.53;20.37;;;-12.80;99.90;;;;;;5035875;28;20250;-86
2024/01/09 05:19:05;;;;;;;61.03;21.27;;;-12.80;99.90;;;;;;5036131;28;20279;-86
2024/01/09 05:21:53;;;;;;;61.33;21.00;;;-12.80;99.90;;;;;;5035598;28;20274;-86
2024/01/09 05:24:41;;;;;;;64.70;21.17;;;-12.70;99.90;;;;;;5036929;28;20203;-86
2024/01/09 05:27:28;;;;;;;59.50;20.47;;;-12.80;99.90;;;;;;5034801;28;20251;-86
2024/01/09 05:30:15;;;;;;;67.23;21.30;;;-12.70;99.90;;;;;;5035248;28;20285;-85
2024/01/09 05:33:04;;;;;;;58.97;21.20;;;-12.70;99.90;;;;;;5034343;28;20589;-86
2024/01/09 05:35:51;;;;;;;57.43;20.77;;;-12.80;99.90;;;;;;5035623;28;20202;-85
2024/01/09 05:38:39;;;;;;;63.47;21.80;;;-12.80;99.90;;;;;;5035747;28;20196;-85
2024/01/09 05:41:27;;;;;;;62.43;22.30;;;-12.80;99.90;;;;;;5036747;28;20304;-85
2024/01/09 05:44:14;;;;;;;61.33;20.30;;;-12.80;99.90;;;;;;5036534;28;20572;-85
2024/01/09 05:47:01;;;;;;;60.10;21.07;;;-12.80;99.90;;;;;;5035659;28;20196;-86
2024/01/09 05:49:49;;;;;;;59.87;20.37;;;-12.90;99.90;;;;;;5036035;28;20631;-85
2024/01/09 05:52:37;;;;;;;66.57;20.97;;;-12.90;99.90;;;;;;5033421;28;20204;-84
2024/01/09 05:55:24;;;;;;;58.10;20.37;;;-13.00;99.90;;;;;;5035818;28;20203;-84
2024/01/09 05:58:12;;;;;;;63.40;20.00;;;-13.00;99.90;;;;;;5035974;28;20242;-86
2024/01/09 06:01:00;;;;;;;56.50;19.10;;;-13.00;99.90;;;;;;5034748;28;20191;-86
2024/01/09 06:03:47;;;;;;;55.83;20.73;;;-12.90;99.90;;;;;;5035697;28;20228;-86
2024/01/09 06:06:35;;;;;;;61.23;20.07;;;-12.90;99.90;;;;;;5032250;28;20191;-86
2024/01/09 06:09:22;;;;;;;58.07;20.40;;;-12.80;99.90;;;;;;5034964;28;20227;-86
2024/01/09 06:12:10;;;;;;;60.27;19.50;;;-12.80;99.90;;;;;;5034543;28;20214;-85
2024/01/09 06:14:59;;;;;;;51.33;19.37;;;-12.80;99.90;;;;;;5035564;28;20191;-83
2024/01/09 06:17:48;;;;;;;56.00;19.53;;;-12.80;99.90;;;;;;5033315;28;20244;-84
2024/01/09 06:20:35;;;;;;;67.13;20.90;;;-12.80;99.90;;;;;;5033657;28;20200;-85
2024/01/09 06:23:23;;;;;;;53.33;20.50;;;-12.80;99.90;;;;;;5034923;28;20406;-81
2024/01/09 06:26:13;;;;;;;57.90;20.27;;;-12.80;99.90;;;;;;5035409;28;20219;-84
2024/01/09 06:29:00;;;;;;;55.07;19.33;;;-12.80;99.90;;;;;;5034474;28;20222;-84
2024/01/09 06:31:48;;;;;;;58.30;20.67;;;-12.70;99.90;;;;;;5035379;28;20214;-84
2024/01/09 06:34:36;;;;;;;57.83;20.67;;;-12.70;99.90;;;;;;5034814;28;20199;-87
2024/01/09 06:37:24;;;;;;;59.10;20.13;;;-12.60;99.90;;;;;;5034634;28;20203;-87
2024/01/09 06:40:11;;;;;;;59.63;21.13;;;-12.60;99.90;;;;;;5035536;28;20199;-85
2024/01/09 06:42:58;;;;;;;57.27;19.80;;;-12.60;99.90;;;;;;5032928;28;20590;-86
2024/01/09 06:45:46;;;;;;;58.50;19.63;;;-12.60;99.90;;;;;;5035962;28;20265;-85
2024/01/09 06:48:33;;;;;;;56.80;21.03;;;-12.60;99.90;;;;;;5035288;28;20600;-86
2024/01/09 06:51:21;;;;;;;55.23;21.23;;;-12.60;99.90;;;;;;5035922;28;20188;-86
2024/01/09 06:54:08;;;;;;;66.10;21.83;;;-12.60;99.90;;;;;;5034675;28;20204;-82
2024/01/09 06:56:56;;;;;;;55.07;20.67;;;-12.50;99.90;;;;;;5034224;28;20215;-87
2024/01/09 06:59:44;;;;;;;62.17;21.67;;;-12.50;99.90;;;;;;5034327;28;20553;-83
2024/01/09 07:02:34;;;;;;;63.57;21.57;;;-12.50;99.90;;;;;;5033328;28;20285;-85
2024/01/09 07:05:22;;;;;;;64.87;21.17;;;-12.50;99.90;;;;;;5032961;28;20200;-85
2024/01/09 07:08:09;;;;;;;58.70;20.80;;;-12.40;99.90;;;;;;5035267;28;21130;-85
2024/01/09 07:10:57;;;;;;;59.90;20.67;;;-12.30;99.90;;;;;;5032863;28;20191;-86
2024/01/09 07:13:44;;;;;;;57.77;21.03;;;-12.40;99.90;;;;;;5034126;28;20575;-85
2024/01/09 07:16:31;;;;;;;61.20;22.20;;;-12.30;99.90;;;;;;5032879;28;20302;-86
2024/01/09 07:19:19;;;;;;;56.90;22.63;;;-12.30;99.90;;;;;;5032978;28;20199;-86
2024/01/09 07:22:06;;;;;;;60.97;21.20;;;-12.30;99.90;;;;;;5035036;28;20200;-86
2024/01/09 07:24:53;;;;;;;60.23;22.13;;;-12.30;99.90;;;;;;5033003;28;20202;-86
2024/01/09 07:27:41;;;;;;;70.83;24.33;;;-12.20;99.90;;;;;;5033718;28;20257;-85
2024/01/09 07:30:28;;;;;;;60.87;23.43;;;-12.30;99.90;;;;;;5033622;28;20755;-86
2024/01/09 07:33:16;;;;;;;63.53;21.77;;;-12.30;99.90;;;;;;5031615;28;20187;-85
2024/01/09 07:36:04;;;;;;;58.63;20.73;;;-12.20;99.90;;;;;;5031876;28;20327;-85
2024/01/09 07:38:51;;;;;;;63.50;22.07;;;-12.10;99.90;;;;;;5033680;28;20242;-85
2024/01/09 07:41:39;;;;;;;58.93;22.00;;;-12.10;99.90;;;;;;5032596;28;20216;-86
2024/01/09 07:44:26;;;;;;;64.07;21.07;;;-12.00;99.90;;;;;;5034395;28;20195;-85
2024/01/09 07:47:14;;;;;;;65.07;22.57;;;-11.90;99.90;;;;;;5033479;28;20226;-86
2024/01/09 07:50:03;;;;;;;62.03;22.30;;;-11.90;99.90;;;;;;5034558;28;20216;-86
2024/01/09 07:52:51;;;;;;;61.27;21.63;;;-11.90;99.90;;;;;;5034619;28;20271;-85
2024/01/09 07:55:38;;;;;;;74.00;24.00;;;-11.80;99.90;;;;;;5032568;28;20250;-86
2024/01/09 07:58:25;;;;;;;66.60;22.20;;;-11.40;99.90;;;;;;5034393;28;20191;-86
2024/01/09 08:01:13;;;;;;;67.23;23.53;;;-10.90;99.90;;;;;;5033887;28;20188;-83
2024/01/09 08:04:01;;;;;;;73.60;24.60;;;-10.40;99.90;;;;;;5033423;28;20293;-85
2024/01/09 08:06:50;;;;;;;68.73;24.87;;;-10.10;99.90;;;;;;5032867;28;20241;-86
2024/01/09 08:09:37;;;;;;;78.70;25.07;;;-9.90;99.90;;;;;;5034072;28;20698;-85
2024/01/09 08:12:25;;;;;;;59.20;24.80;;;-9.60;99.90;;;;;;5032894;28;20562;-86
2024/01/09 08:15:12;;;;;;;61.33;24.20;;;-9.20;99.90;;;;;;5033761;28;20276;-86
2024/01/09 08:17:59;;;;;;;63.07;24.00;;;-9.10;99.90;;;;;;5034652;28;20609;-86
2024/01/09 08:20:47;;;;;;;76.93;26.33;;;-8.90;99.90;;;;;;5033807;28;20237;-86
2024/01/09 08:23:35;;;;;;;71.13;25.83;;;-8.70;99.90;;;;;;5033759;28;20201;-86
2024/01/09 08:26:23;;;;;;;73.90;25.33;;;-8.40;99.90;;;;;;5033937;28;20307;-86
2024/01/09 08:29:10;;;;;;;68.03;25.57;;;-8.30;99.90;;;;;;5033807;28;20693;-86
2024/01/09 08:31:57;;;;;;;73.87;26.13;;;-8.20;99.90;;;;;;5034237;28;20201;-86
2024/01/09 08:34:45;;;;;;;71.00;25.57;;;-8.00;99.90;;;;;;5034241;28;20209;-86
2024/01/09 08:37:33;;;;;;;70.57;24.67;;;-7.90;99.90;;;;;;5033695;28;20195;-86
2024/01/09 08:40:20;;;;;;;62.10;24.80;;;-7.70;99.90;;;;;;5033659;28;20202;-86
2024/01/09 08:43:07;;;;;;;73.97;26.03;;;-7.70;99.90;;;;;;5035363;28;20288;-85
2024/01/09 08:45:55;;;;;;;66.13;24.00;;;-7.60;99.90;;;;;;5032105;28;20303;-85
2024/01/09 08:48:46;;;;;;;58.37;22.77;;;-7.90;99.90;;;;;;5032817;28;20233;-83
2024/01/09 08:51:35;;;;;;;65.47;24.27;;;-8.10;99.90;;;;;;5033619;28;20573;-85
2024/01/09 08:54:22;;;;;;;64.57;24.07;;;-8.10;99.90;;;;;;5033763;28;20205;-87
2024/01/09 08:57:10;;;;;;;63.07;24.70;;;-8.40;99.90;;;;;;5033167;28;20213;-86
2024/01/09 08:59:58;;;;;;;60.93;23.37;;;-8.50;99.90;;;;;;5032642;28;20194;-86
2024/01/09 09:02:45;;;;;;;70.10;25.97;;;-8.60;99.90;;;;;;5031526;28;20204;-86
2024/01/09 09:05:33;;;;;;;68.33;25.70;;;-8.80;99.90;;;;;;5035231;28;20462;-84
2024/01/09 09:08:24;;;;;;;72.50;25.27;;;-8.90;99.90;;;;;;5046217;28;20194;-86
2024/01/09 09:11:14;;;;;;;76.80;26.00;;;-9.10;99.90;;;;;;5047264;28;20212;-85
2024/01/09 09:14:03;;;;;;;74.13;25.03;;;-9.30;99.90;;;;;;5049355;28;20341;-85
2024/01/09 09:16:51;;;;;;;66.97;25.50;;;-9.30;99.90;;;;;;5044101;28;20197;-86
2024/01/09 09:19:38;;;;;;;69.87;24.43;;;-9.40;99.90;;;;;;5046614;28;20207;-86
2024/01/09 09:22:26;;;;;;;61.67;22.93;;;-9.40;99.90;;;;;;5047251;28;20650;-86
2024/01/09 09:25:14;;;;;;;64.53;24.13;;;-9.40;99.90;;;;;;5051962;28;20211;-86
2024/01/09 09:28:01;;;;;;;58.60;23.63;;;-9.50;99.90;;;;;;5046188;28;20229;-85
2024/01/09 09:30:50;;;;;;;64.77;23.73;;;-9.50;99.90;;;;;;5049167;28;20227;-84
2024/01/09 09:33:38;;;;;;;66.20;23.87;;;-9.50;99.90;;;;;;5040157;28;20223;-86
2024/01/09 09:36:26;;;;;;;68.00;24.57;;;-9.40;99.90;;;;;;5036921;28;20554;-85
2024/01/09 09:39:13;;;;;;;72.53;25.07;;;-9.40;99.90;;;;;;5022733;28;20196;-85
2024/01/09 09:42:00;;;;;;;75.60;25.87;;;-9.40;99.90;;;;;;5036177;28;20222;-86
2024/01/09 09:44:54;;;;;;;72.87;24.97;;;-9.30;99.90;;;;;;5035727;28;20202;-85
2024/01/09 09:47:43;;;;;;;79.17;26.80;;;-9.30;99.90;;;;;;5035073;28;20200;-85
2024/01/09 09:50:33;;;;;;;71.27;26.50;;;-9.20;99.90;;;;;;5034699;28;20221;-85
2024/01/09 09:53:27;;;;;;;67.47;26.63;;;-9.20;99.90;;;;;;5037001;28;20256;-84
2024/01/09 09:56:15;;;;;;;65.83;25.33;;;-9.20;99.90;;;;;;5036143;28;20564;-83
2024/01/09 09:59:03;;;;;;;73.23;26.07;;;-9.30;99.90;;;;;;5043687;28;20199;-82
2024/01/09 10:01:51;;;;;;;68.07;24.83;;;-9.20;99.90;;;;;;5055651;28;20198;-84
2024/01/09 10:04:51;;;;;;;67.17;26.77;;;-9.10;99.90;;;;;;5034416;28;20658;-86
2024/01/09 10:07:41;;;;;;;64.90;24.10;;;-9.10;99.90;;;;;;5034836;28;20293;-86
2024/01/09 10:10:29;;;;;;;76.20;26.87;;;-9.00;99.90;;;;;;5033508;28;20604;-85
2024/01/09 10:13:16;;;;;;;73.80;27.40;;;-8.80;99.90;;;;;;5034324;28;20281;-83
2024/01/09 10:16:04;;;;;;;70.43;24.63;;;-8.90;99.90;;;;;;5036786;28;20195;-85
2024/01/09 10:18:55;;;;;;;78.37;26.57;;;-8.70;99.90;;;;;;5050999;28;20608;-86
2024/01/09 10:21:42;;;;;;;74.93;27.13;;;-8.70;99.90;;;;;;5035591;28;20626;-85
2024/01/09 10:24:36;;;;;;;70.83;25.73;;;-8.60;99.90;;;;;;5034625;28;20206;-87
2024/01/09 10:27:23;;;;;;;71.57;25.23;;;-8.70;99.90;;;;;;5034785;28;20213;-86
2024/01/09 10:30:12;;;;;;;61.17;23.43;;;-8.60;99.90;;;;;;5040208;28;20305;-86
2024/01/09 10:33:00;;;;;;;69.37;23.47;;;-8.50;99.90;;;;;;5020437;28;20664;-87
2024/01/09 10:35:49;;;;;;;62.00;23.63;;;-8.40;99.90;;;;;;5035205;28;20691;-86
2024/01/09 10:38:36;;;;;;;57.07;22.93;;;-8.20;99.90;;;;;;5035030;28;20252;-87
2024/01/09 10:41:27;;;;;;;58.97;20.67;;;-8.10;99.90;;;;;;5035318;28;20222;-87
2024/01/09 10:44:15;;;;;;;52.07;20.83;;;-8.10;99.90;;;;;;5034529;28;20610;-87
2024/01/09 10:47:03;;;;;;;57.83;22.17;;;-8.00;99.90;;;;;;5035310;28;20391;-86
2024/01/09 10:49:52;;;;;;;55.30;21.73;;;-7.90;99.90;;;;;;5034470;28;20221;-87
2024/01/09 10:52:41;;;;;;;55.03;21.43;;;-7.90;99.90;;;;;;5033342;28;20202;-86
2024/01/09 10:55:30;;;;;;;55.47;21.70;;;-7.80;99.90;;;;;;5033623;28;20284;-87
2024/01/09 10:58:17;;;;;;;55.57;20.90;;;-7.70;99.90;;;;;;5035013;28;20286;-85
2024/01/09 11:01:05;;;;;;;55.67;21.70;;;-7.70;99.90;;;;;;5033925;28;20194;-85
2024/01/09 11:03:52;;;;;;;56.37;21.53;;;-7.60;99.90;;;;;;5034566;28;20274;-86
2024/01/09 11:06:42;;;;;;;51.40;18.77;;;-7.60;99.90;;;;;;5032869;28;20610;-85
2024/01/09 11:09:35;;;;;;;52.20;19.83;;;-7.50;99.90;;;;;;5032535;28;20297;-85
2024/01/09 11:12:30;;;;;;;58.37;21.97;;;-7.40;99.90;;;;;;5033398;28;20800;-85
2024/01/09 11:15:26;;;;;;;51.07;20.60;;;-7.40;99.90;;;;;;5033455;28;20202;-84
2024/01/09 11:18:16;;;;;;;57.27;20.80;;;-7.10;99.90;;;;;;5032947;28;20236;-85
2024/01/09 11:21:04;;;;;;;52.53;20.63;;;-7.10;99.90;;;;;;5034852;28;20194;-85
2024/01/09 11:23:54;;;;;;;61.50;22.37;;;-7.10;99.90;;;;;;5033066;28;20217;-85
2024/01/09 11:26:43;;;;;;;57.57;21.07;;;-7.10;99.90;;;;;;5032814;28;20697;-85
2024/01/09 11:29:50;;;;;;;48.57;18.63;;;-7.00;99.90;;;;;;5032429;28;20242;-86
2024/01/09 11:32:38;;;;;;;55.47;18.63;;;-7.00;99.90;;;;;;5032204;28;20210;-84
2024/01/09 11:35:27;;;;;;;50.93;18.87;;;-7.00;99.90;;;;;;5031403;28;20609;-85
2024/01/09 11:38:17;;;;;;;52.50;18.33;;;-6.90;99.90;;;;;;5033164;28;20200;-84
2024/01/09 11:41:06;;;;;;;45.50;18.00;;;-6.90;99.90;;;;;;5033242;28;20226;-85
2024/01/09 11:43:56;;;;;;;45.57;17.13;;;-6.80;99.90;;;;;;5033196;28;20256;-86
2024/01/09 11:46:43;;;;;;;50.87;17.93;;;-6.60;99.90;;;;;;5032501;28;20254;-85
2024/01/09 11:49:31;;;;;;;54.47;19.87;;;-6.20;99.90;;;;;;5033482;28;20661;-85
2024/01/09 11:52:19;;;;;;;48.23;19.10;;;-5.60;99.90;;;;;;5031940;28;20644;-86
2024/01/09 11:55:08;;;;;;;48.77;18.20;;;-4.90;99.90;;;;;;5033521;28;20298;-86
2024/01/09 11:57:56;;;;;;;62.03;21.10;;;-4.40;99.90;;;;;;5032777;28;20222;-87
2024/01/09 12:00:45;;;;;;;55.67;19.23;;;-3.60;99.90;;;;;;5034039;28;20611;-86
2024/01/09 12:03:33;;;;;;;49.50;20.17;;;-3.10;99.90;;;;;;5042395;28;20242;-86
2024/01/09 12:06:31;;;;;;;47.43;20.13;;;-2.50;99.90;;;;;;5033099;28;20195;-87
2024/01/09 12:09:19;;;;;;;44.73;20.23;;;-2.10;99.90;;;;;;5033193;28;20207;-86
2024/01/09 12:12:08;;;;;;;52.70;21.73;;;-2.10;99.90;;;;;;5032883;28;20575;-87
2024/01/09 12:14:57;;;;;;;51.80;21.07;;;-2.50;99.90;;;;;;5032739;28;20287;-84
2024/01/09 12:17:52;;;;;;;51.83;20.43;;;-3.00;99.90;;;;;;5033853;28;20195;-86
2024/01/09 12:20:41;;;;;;;54.67;20.47;;;-3.60;99.90;;;;;;5031443;28;20193;-85
2024/01/09 12:23:28;;;;;;;53.23;19.63;;;-3.60;99.90;;;;;;5031894;28;20219;-85
2024/01/09 12:26:28;;;;;;;52.93;20.63;;;-4.20;99.90;;;;;;5033520;28;20212;-87
2024/01/09 12:29:15;;;;;;;56.60;19.37;;;-4.40;99.90;;;;;;5031853;28;20720;-86
2024/01/09 12:32:03;;;;;;;57.07;20.53;;;-4.50;99.90;;;;;;5032682;28;20211;-86
2024/01/09 12:34:51;;;;;;;51.30;20.10;;;-4.50;99.90;;;;;;5032684;28;20203;-87
2024/01/09 12:37:38;;;;;;;46.47;18.60;;;-4.60;99.90;;;;;;5031898;28;20195;-86
2024/01/09 12:40:25;;;;;;;48.47;18.33;;;-4.90;99.90;;;;;;5032585;28;20303;-86
2024/01/09 12:43:16;;;;;;;44.83;18.83;;;-4.90;99.90;;;;;;5037433;28;20341;-86
2024/01/09 12:46:07;;;;;;;44.57;18.47;;;-5.20;99.90;;;;;;5036520;28;20211;-86
2024/01/09 12:48:54;;;;;;;46.37;17.93;;;-5.30;99.90;;;;;;5035645;28;20199;-86
2024/01/09 12:51:42;;;;;;;51.53;18.53;;;-5.20;99.90;;;;;;5036555;28;20834;-86
2024/01/09 12:54:29;;;;;;;46.30;18.33;;;-5.30;99.90;;;;;;5036617;28;20663;-86
2024/01/09 12:57:16;;;;;;;45.13;18.27;;;-5.30;99.90;;;;;;5035942;28;20215;-85
2024/01/09 13:00:06;;;;;;;46.70;18.77;;;-5.20;99.90;;;;;;5035855;28;20300;-85
2024/01/09 13:02:57;;;;;;;48.00;18.40;;;-5.10;99.90;;;;;;5035739;28;20234;-86
2024/01/09 13:05:44;;;;;;;46.57;18.13;;;-5.20;99.90;;;;;;5035811;28;20668;-86
2024/01/09 13:08:34;;;;;;;42.50;17.97;;;-5.00;99.90;;;;;;5034703;28;20198;-86
2024/01/09 13:11:22;;;;;;;46.13;17.53;;;-4.60;99.90;;;;;;5034820;28;20220;-86
2024/01/09 13:14:10;;;;;;;45.07;17.00;;;-4.10;99.90;;;;;;5035059;28;20195;-87
2024/01/09 13:16:58;;;;;;;43.93;16.73;;;-3.70;99.90;;;;;;5035531;28;20197;-87
2024/01/09 13:19:47;;;;;;;43.70;17.57;;;-3.10;99.90;;;;;;5034673;28;20569;-87
2024/01/09 13:22:34;;;;;;;45.37;16.27;;;-2.70;99.90;;;;;;5034907;28;20203;-87
2024/01/09 13:25:43;;;;;;;41.33;15.50;;;-2.30;99.90;;;;;;5035047;28;20275;-88
2024/01/09 13:28:30;;;;;;;37.07;15.60;;;-2.00;99.90;;;;;;5034353;28;20205;-87
2024/01/09 13:31:18;;;;;;;41.60;15.40;;;-1.90;99.90;;;;;;5033754;28;20225;-87
2024/01/09 13:34:05;;;;;;;31.50;12.43;;;-1.90;99.90;;;;;;5036475;28;20651;-87
2024/01/09 13:36:55;;;;;;;29.00;11.33;;;-2.40;99.90;;;;;;5036557;28;20196;-83
2024/01/09 13:39:42;;;;;;;20.97;8.97;;;-2.20;99.90;;;;;;5034560;28;20192;-86
2024/01/09 13:42:30;;;;;;;25.47;9.40;;;-2.40;99.90;;;;;;5035889;28;20216;-86
2024/01/09 13:45:20;;;;;;;25.57;9.33;;;-2.60;99.90;;;;;;5035280;28;20212;-87
2024/01/09 13:48:07;;;;;;;22.93;9.37;;;-2.50;99.90;;;;;;5034482;28;20200;-87
2024/01/09 13:50:55;;;;;;;25.23;10.03;;;-2.30;99.90;;;;;;5034821;28;20230;-87
2024/01/09 13:53:47;;;;;;;24.90;9.83;;;-2.10;99.90;;;;;;5035345;28;20197;-87
2024/01/09 13:56:34;;;;;;;20.43;9.23;;;-2.20;99.90;;;;;;5034073;28;20351;-87
2024/01/09 13:59:22;;;;;;;19.73;8.67;;;-2.40;99.90;;;;;;5035345;28;20572;-87
2024/01/09 14:02:10;;;;;;;19.97;8.20;;;-2.60;99.90;;;;;;5034334;28;20196;-87
2024/01/09 14:04:57;;;;;;;20.53;8.23;;;-2.60;99.90;;;;;;5034672;28;20266;-86